Terminal Aerodrome Forecast
Issued by NWS

Home | Current Version | Previous Version | Text Only | Print | Product List | Glossary On
Versions: 1 2 3 4 5 6 7 8 9 10 11 12 13 14 15 16 17 18 19 20 21 22
786
FTUS44 KLZK 011800 CCA
TAFPBF
TAF COR
KPBF 011800Z 0118/0218 34010KT P6SM VCSH SCT025 BKN050
      TEMPO 0118/0122 BKN025
     FM020000 36006KT P6SM SCT050 BKN250
     FM020600 01007KT P6SM VCSH OVC050
     FM020900 36008KT P6SM VCSH SCT015 OVC030 PROB30 0209/0215 5SM
      -RA BR OVC015
     FM021500 35010KT 5SM -RA BR OVC015=

USA.gov is the U.S. government's official web portal to all federal, state and local government web resources and services.